sensor_id;sensor_type;location;lat;lon;timestamp;P1;durP1;ratioP1;P2;durP2;ratioP2
49193;SDS011;35029;50.804;12.866;2023-06-10T00:02:07;10.40;;;8.30;;
49193;SDS011;35029;50.804;12.866;2023-06-10T00:04:33;10.50;;;9.50;;
49193;SDS011;35029;50.804;12.866;2023-06-10T00:07:02;11.77;;;8.95;;
49193;SDS011;35029;50.804;12.866;2023-06-10T00:09:29;9.20;;;8.32;;
49193;SDS011;35029;50.804;12.866;2023-06-10T00:11:54;10.23;;;9.23;;
49193;SDS011;35029;50.804;12.866;2023-06-10T00:14:20;9.52;;;8.57;;
49193;SDS011;35029;50.804;12.866;2023-06-10T00:16:45;10.77;;;8.82;;
49193;SDS011;35029;50.804;12.866;2023-06-10T00:19:11;13.00;;;8.15;;
49193;SDS011;35029;50.804;12.866;2023-06-10T00:21:39;9.38;;;8.48;;
49193;SDS011;35029;50.804;12.866;2023-06-10T00:24:08;10.45;;;8.40;;
49193;SDS011;35029;50.804;12.866;2023-06-10T00:26:37;9.00;;;8.13;;
49193;SDS011;35029;50.804;12.866;2023-06-10T00:29:04;10.82;;;9.73;;
49193;SDS011;35029;50.804;12.866;2023-06-10T00:31:31;13.73;;;10.73;;
49193;SDS011;35029;50.804;12.866;2023-06-10T00:33:56;13.45;;;10.00;;
49193;SDS011;35029;50.804;12.866;2023-06-10T00:36:24;11.60;;;10.35;;
49193;SDS011;35029;50.804;12.866;2023-06-10T00:38:49;11.25;;;10.10;;
49193;SDS011;35029;50.804;12.866;2023-06-10T00:41:15;10.68;;;9.57;;
49193;SDS011;35029;50.804;12.866;2023-06-10T00:43:40;15.82;;;10.30;;
49193;SDS011;35029;50.804;12.866;2023-06-10T00:46:07;10.98;;;9.82;;
49193;SDS011;35029;50.804;12.866;2023-06-10T00:48:33;12.52;;;10.45;;
49193;SDS011;35029;50.804;12.866;2023-06-10T00:50:59;11.00;;;9.75;;
49193;SDS011;35029;50.804;12.866;2023-06-10T00:53:25;10.25;;;9.07;;
49193;SDS011;35029;50.804;12.866;2023-06-10T00:55:51;10.85;;;9.80;;
49193;SDS011;35029;50.804;12.866;2023-06-10T00:58:18;10.18;;;9.15;;
49193;SDS011;35029;50.804;12.866;2023-06-10T01:00:43;10.57;;;9.57;;
49193;SDS011;35029;50.804;12.866;2023-06-10T01:03:10;11.98;;;9.32;;
49193;SDS011;35029;50.804;12.866;2023-06-10T01:05:37;11.90;;;9.48;;
49193;SDS011;35029;50.804;12.866;2023-06-10T01:08:07;12.30;;;9.43;;
49193;SDS011;35029;50.804;12.866;2023-06-10T01:13:06;11.23;;;9.70;;
49193;SDS011;35029;50.804;12.866;2023-06-10T01:15:37;10.95;;;9.88;;
49193;SDS011;35029;50.804;12.866;2023-06-10T01:18:08;12.55;;;9.43;;
49193;SDS011;35029;50.804;12.866;2023-06-10T01:20:35;11.23;;;9.63;;
49193;SDS011;35029;50.804;12.866;2023-06-10T01:23:05;10.60;;;9.60;;
49193;SDS011;35029;50.804;12.866;2023-06-10T01:25:32;13.63;;;9.45;;
49193;SDS011;35029;50.804;12.866;2023-06-10T01:28:45;11.30;;;9.60;;
49193;SDS011;35029;50.804;12.866;2023-06-10T01:33:41;9.80;;;8.90;;
49193;SDS011;35029;50.804;12.866;2023-06-10T01:36:08;10.32;;;9.38;;
49193;SDS011;35029;50.804;12.866;2023-06-10T01:38:44;10.10;;;9.10;;
49193;SDS011;35029;50.804;12.866;2023-06-10T01:41:13;12.00;;;9.77;;
49193;SDS011;35029;50.804;12.866;2023-06-10T01:43:43;14.75;;;9.85;;
49193;SDS011;35029;50.804;12.866;2023-06-10T01:46:09;13.55;;;8.93;;
49193;SDS011;35029;50.804;12.866;2023-06-10T01:48:36;9.40;;;8.48;;
49193;SDS011;35029;50.804;12.866;2023-06-10T01:51:02;13.48;;;9.43;;
49193;SDS011;35029;50.804;12.866;2023-06-10T01:53:28;10.75;;;9.75;;
49193;SDS011;35029;50.804;12.866;2023-06-10T01:55:54;11.65;;;10.02;;
49193;SDS011;35029;50.804;12.866;2023-06-10T01:58:19;12.48;;;10.48;;
49193;SDS011;35029;50.804;12.866;2023-06-10T02:00:45;10.88;;;9.77;;
49193;SDS011;35029;50.804;12.866;2023-06-10T02:03:10;11.80;;;9.57;;
49193;SDS011;35029;50.804;12.866;2023-06-10T02:05:36;10.98;;;9.63;;
49193;SDS011;35029;50.804;12.866;2023-06-10T02:08:02;13.32;;;9.85;;
49193;SDS011;35029;50.804;12.866;2023-06-10T02:10:27;11.45;;;8.93;;
49193;SDS011;35029;50.804;12.866;2023-06-10T02:12:53;11.23;;;10.13;;
49193;SDS011;35029;50.804;12.866;2023-06-10T02:15:18;11.13;;;9.75;;
49193;SDS011;35029;50.804;12.866;2023-06-10T02:17:45;10.68;;;9.40;;
49193;SDS011;35029;50.804;12.866;2023-06-10T02:20:11;11.30;;;10.20;;
49193;SDS011;35029;50.804;12.866;2023-06-10T02:22:40;13.13;;;9.93;;
49193;SDS011;35029;50.804;12.866;2023-06-10T02:25:07;14.30;;;9.85;;
49193;SDS011;35029;50.804;12.866;2023-06-10T02:27:33;12.73;;;10.25;;
49193;SDS011;35029;50.804;12.866;2023-06-10T02:30:00;11.40;;;9.90;;
49193;SDS011;35029;50.804;12.866;2023-06-10T02:32:26;12.73;;;10.25;;
49193;SDS011;35029;50.804;12.866;2023-06-10T02:34:52;12.18;;;10.88;;
49193;SDS011;35029;50.804;12.866;2023-06-10T02:37:20;12.98;;;9.98;;
49193;SDS011;35029;50.804;12.866;2023-06-10T02:39:46;11.30;;;10.20;;
49193;SDS011;35029;50.804;12.866;2023-06-10T02:42:11;10.52;;;9.50;;
49193;SDS011;35029;50.804;12.866;2023-06-10T02:44:37;11.13;;;9.40;;
49193;SDS011;35029;50.804;12.866;2023-06-10T02:47:04;12.32;;;10.25;;
49193;SDS011;35029;50.804;12.866;2023-06-10T02:49:32;11.00;;;9.88;;
49193;SDS011;35029;50.804;12.866;2023-06-10T02:51:58;11.40;;;10.30;;
49193;SDS011;35029;50.804;12.866;2023-06-10T02:54:24;13.52;;;10.57;;
49193;SDS011;35029;50.804;12.866;2023-06-10T02:56:52;10.45;;;9.30;;
49193;SDS011;35029;50.804;12.866;2023-06-10T02:59:21;11.15;;;10.05;;
49193;SDS011;35029;50.804;12.866;2023-06-10T03:01:47;10.57;;;9.68;;
49193;SDS011;35029;50.804;12.866;2023-06-10T03:04:13;12.00;;;10.80;;
49193;SDS011;35029;50.804;12.866;2023-06-10T03:06:44;13.73;;;9.80;;
49193;SDS011;35029;50.804;12.866;2023-06-10T03:09:17;13.45;;;9.57;;
49193;SDS011;35029;50.804;12.866;2023-06-10T03:11:46;10.93;;;9.82;;
49193;SDS011;35029;50.804;12.866;2023-06-10T03:14:11;11.27;;;9.82;;
49193;SDS011;35029;50.804;12.866;2023-06-10T03:16:37;12.50;;;10.15;;
49193;SDS011;35029;50.804;12.866;2023-06-10T03:19:06;11.30;;;9.88;;
49193;SDS011;35029;50.804;12.866;2023-06-10T03:21:34;11.48;;;10.25;;
49193;SDS011;35029;50.804;12.866;2023-06-10T03:24:00;10.25;;;9.25;;
49193;SDS011;35029;50.804;12.866;2023-06-10T03:26:26;10.98;;;9.98;;
49193;SDS011;35029;50.804;12.866;2023-06-10T03:28:53;10.65;;;9.65;;
49193;SDS011;35029;50.804;12.866;2023-06-10T03:31:21;11.05;;;9.88;;
49193;SDS011;35029;50.804;12.866;2023-06-10T03:33:47;10.82;;;9.82;;
49193;SDS011;35029;50.804;12.866;2023-06-10T03:36:13;11.20;;;8.90;;
49193;SDS011;35029;50.804;12.866;2023-06-10T03:38:38;11.30;;;10.30;;
49193;SDS011;35029;50.804;12.866;2023-06-10T03:41:05;10.90;;;9.77;;
49193;SDS011;35029;50.804;12.866;2023-06-10T03:43:32;13.18;;;10.15;;
49193;SDS011;35029;50.804;12.866;2023-06-10T03:45:58;10.80;;;9.60;;
49193;SDS011;35029;50.804;12.866;2023-06-10T03:48:23;9.70;;;8.80;;
49193;SDS011;35029;50.804;12.866;2023-06-10T03:50:52;10.77;;;9.77;;
49193;SDS011;35029;50.804;12.866;2023-06-10T03:53:19;11.77;;;10.45;;
49193;SDS011;35029;50.804;12.866;2023-06-10T03:55:45;21.52;;;10.60;;
49193;SDS011;35029;50.804;12.866;2023-06-10T03:58:11;11.10;;;9.93;;
49193;SDS011;35029;50.804;12.866;2023-06-10T04:00:38;10.82;;;9.70;;
49193;SDS011;35029;50.804;12.866;2023-06-10T04:03:09;11.50;;;9.77;;
49193;SDS011;35029;50.804;12.866;2023-06-10T04:05:43;12.85;;;9.60;;
49193;SDS011;35029;50.804;12.866;2023-06-10T04:08:09;10.25;;;9.10;;
49193;SDS011;35029;50.804;12.866;2023-06-10T04:10:34;11.27;;;10.27;;
49193;SDS011;35029;50.804;12.866;2023-06-10T04:13:00;10.43;;;9.30;;
49193;SDS011;35029;50.804;12.866;2023-06-10T04:15:30;10.32;;;8.90;;
49193;SDS011;35029;50.804;12.866;2023-06-10T04:18:00;10.98;;;9.75;;
49193;SDS011;35029;50.804;12.866;2023-06-10T04:20:28;10.80;;;9.70;;
49193;SDS011;35029;50.804;12.866;2023-06-10T04:22:54;13.32;;;10.20;;
49193;SDS011;35029;50.804;12.866;2023-06-10T04:25:20;10.07;;;9.13;;
49193;SDS011;35029;50.804;12.866;2023-06-10T04:27:48;10.93;;;9.82;;
49193;SDS011;35029;50.804;12.866;2023-06-10T04:30:14;11.65;;;10.48;;
49193;SDS011;35029;50.804;12.866;2023-06-10T04:32:43;11.25;;;10.02;;
49193;SDS011;35029;50.804;12.866;2023-06-10T04:35:13;11.88;;;10.77;;
49193;SDS011;35029;50.804;12.866;2023-06-10T04:37:40;13.20;;;10.85;;
49193;SDS011;35029;50.804;12.866;2023-06-10T04:40:08;11.70;;;10.60;;
49193;SDS011;35029;50.804;12.866;2023-06-10T04:42:34;13.38;;;11.85;;
49193;SDS011;35029;50.804;12.866;2023-06-10T04:45:00;13.35;;;11.95;;
49193;SDS011;35029;50.804;12.866;2023-06-10T04:47:27;13.10;;;11.85;;
49193;SDS011;35029;50.804;12.866;2023-06-10T04:49:52;12.80;;;11.50;;
49193;SDS011;35029;50.804;12.866;2023-06-10T04:52:18;13.57;;;12.23;;
49193;SDS011;35029;50.804;12.866;2023-06-10T04:54:43;12.25;;;11.05;;
49193;SDS011;35029;50.804;12.866;2023-06-10T04:57:09;13.75;;;12.55;;
49193;SDS011;35029;50.804;12.866;2023-06-10T04:59:36;12.13;;;10.93;;
49193;SDS011;35029;50.804;12.866;2023-06-10T05:02:06;12.90;;;11.45;;
49193;SDS011;35029;50.804;12.866;2023-06-10T05:04:32;11.50;;;10.40;;
49193;SDS011;35029;50.804;12.866;2023-06-10T05:06:57;13.50;;;12.20;;
49193;SDS011;35029;50.804;12.866;2023-06-10T05:09:23;12.23;;;11.15;;
49193;SDS011;35029;50.804;12.866;2023-06-10T05:11:49;12.82;;;11.63;;
49193;SDS011;35029;50.804;12.866;2023-06-10T05:14:14;11.90;;;10.65;;
49193;SDS011;35029;50.804;12.866;2023-06-10T05:16:44;16.40;;;11.30;;
49193;SDS011;35029;50.804;12.866;2023-06-10T05:19:09;11.98;;;10.63;;
49193;SDS011;35029;50.804;12.866;2023-06-10T05:21:35;12.35;;;11.15;;
49193;SDS011;35029;50.804;12.866;2023-06-10T05:24:01;12.45;;;11.15;;
49193;SDS011;35029;50.804;12.866;2023-06-10T05:26:27;13.10;;;10.70;;
49193;SDS011;35029;50.804;12.866;2023-06-10T05:28:53;11.38;;;10.20;;
49193;SDS011;35029;50.804;12.866;2023-06-10T05:31:19;10.75;;;9.75;;
49193;SDS011;35029;50.804;12.866;2023-06-10T05:33:45;10.43;;;9.40;;
49193;SDS011;35029;50.804;12.866;2023-06-10T05:36:10;10.85;;;9.75;;
49193;SDS011;35029;50.804;12.866;2023-06-10T05:38:37;10.85;;;9.38;;
49193;SDS011;35029;50.804;12.866;2023-06-10T05:41:02;9.20;;;8.40;;
49193;SDS011;35029;50.804;12.866;2023-06-10T05:43:29;11.75;;;9.77;;
49193;SDS011;35029;50.804;12.866;2023-06-10T05:45:54;9.65;;;8.75;;
49193;SDS011;35029;50.804;12.866;2023-06-10T05:48:20;9.48;;;8.55;;
49193;SDS011;35029;50.804;12.866;2023-06-10T05:50:45;10.35;;;8.70;;
49193;SDS011;35029;50.804;12.866;2023-06-10T05:53:14;8.82;;;8.02;;
49193;SDS011;35029;50.804;12.866;2023-06-10T05:55:43;8.48;;;7.68;;
49193;SDS011;35029;50.804;12.866;2023-06-10T05:58:10;8.80;;;7.93;;
49193;SDS011;35029;50.804;12.866;2023-06-10T06:00:37;10.27;;;8.27;;
49193;SDS011;35029;50.804;12.866;2023-06-10T06:03:08;8.95;;;8.15;;
49193;SDS011;35029;50.804;12.866;2023-06-10T06:05:34;10.13;;;9.10;;
49193;SDS011;35029;50.804;12.866;2023-06-10T06:08:03;8.45;;;7.65;;
49193;SDS011;35029;50.804;12.866;2023-06-10T06:10:29;9.15;;;7.40;;
49193;SDS011;35029;50.804;12.866;2023-06-10T06:12:55;7.93;;;7.22;;
49193;SDS011;35029;50.804;12.866;2023-06-10T06:15:21;6.82;;;6.20;;
49193;SDS011;35029;50.804;12.866;2023-06-10T06:17:46;6.95;;;5.65;;
49193;SDS011;35029;50.804;12.866;2023-06-10T06:20:12;7.13;;;6.50;;
49193;SDS011;35029;50.804;12.866;2023-06-10T06:22:38;7.20;;;6.28;;
49193;SDS011;35029;50.804;12.866;2023-06-10T06:25:05;6.88;;;5.78;;
49193;SDS011;35029;50.804;12.866;2023-06-10T06:27:31;6.30;;;5.70;;
49193;SDS011;35029;50.804;12.866;2023-06-10T06:29:56;5.93;;;5.43;;
49193;SDS011;35029;50.804;12.866;2023-06-10T06:32:22;6.63;;;5.55;;
49193;SDS011;35029;50.804;12.866;2023-06-10T06:34:50;5.85;;;5.35;;
49193;SDS011;35029;50.804;12.866;2023-06-10T06:37:22;7.20;;;6.00;;
49193;SDS011;35029;50.804;12.866;2023-06-10T06:39:53;6.13;;;5.53;;
49193;SDS011;35029;50.804;12.866;2023-06-10T06:42:20;5.75;;;5.25;;
49193;SDS011;35029;50.804;12.866;2023-06-10T06:45:06;6.15;;;5.65;;
49193;SDS011;35029;50.804;12.866;2023-06-10T06:47:32;8.70;;;6.70;;
49193;SDS011;35029;50.804;12.866;2023-06-10T06:49:57;7.80;;;6.40;;
49193;SDS011;35029;50.804;12.866;2023-06-10T06:52:23;7.35;;;6.22;;
49193;SDS011;35029;50.804;12.866;2023-06-10T06:54:48;8.15;;;7.03;;
49193;SDS011;35029;50.804;12.866;2023-06-10T06:57:15;6.53;;;5.93;;
49193;SDS011;35029;50.804;12.866;2023-06-10T06:59:41;8.70;;;6.05;;
49193;SDS011;35029;50.804;12.866;2023-06-10T07:02:06;8.18;;;6.72;;
49193;SDS011;35029;50.804;12.866;2023-06-10T07:04:32;6.75;;;6.15;;
49193;SDS011;35029;50.804;12.866;2023-06-10T07:06:57;10.23;;;7.35;;
49193;SDS011;35029;50.804;12.866;2023-06-10T07:09:23;7.03;;;6.32;;
49193;SDS011;35029;50.804;12.866;2023-06-10T07:11:48;8.18;;;6.68;;
49193;SDS011;35029;50.804;12.866;2023-06-10T07:14:14;7.20;;;6.40;;
49193;SDS011;35029;50.804;12.866;2023-06-10T07:16:40;9.02;;;6.70;;
49193;SDS011;35029;50.804;12.866;2023-06-10T07:19:06;7.00;;;6.30;;
49193;SDS011;35029;50.804;12.866;2023-06-10T07:21:32;7.07;;;6.38;;
49193;SDS011;35029;50.804;12.866;2023-06-10T07:23:59;21.40;;;7.30;;
49193;SDS011;35029;50.804;12.866;2023-06-10T07:26:24;7.18;;;6.20;;
49193;SDS011;35029;50.804;12.866;2023-06-10T07:28:52;8.90;;;6.40;;
49193;SDS011;35029;50.804;12.866;2023-06-10T07:31:17;7.95;;;6.65;;
49193;SDS011;35029;50.804;12.866;2023-06-10T07:33:43;7.18;;;6.47;;
49193;SDS011;35029;50.804;12.866;2023-06-10T07:36:08;8.00;;;6.75;;
49193;SDS011;35029;50.804;12.866;2023-06-10T07:38:34;7.43;;;6.72;;
49193;SDS011;35029;50.804;12.866;2023-06-10T07:41:00;8.10;;;7.03;;
49193;SDS011;35029;50.804;12.866;2023-06-10T07:43:26;7.35;;;6.65;;
49193;SDS011;35029;50.804;12.866;2023-06-10T07:45:51;7.30;;;6.13;;
49193;SDS011;35029;50.804;12.866;2023-06-10T07:48:17;7.30;;;6.60;;
49193;SDS011;35029;50.804;12.866;2023-06-10T07:50:43;6.78;;;6.10;;
49193;SDS011;35029;50.804;12.866;2023-06-10T07:53:09;7.30;;;6.15;;
49193;SDS011;35029;50.804;12.866;2023-06-10T07:55:34;7.35;;;5.68;;
49193;SDS011;35029;50.804;12.866;2023-06-10T07:58:00;8.23;;;6.47;;
49193;SDS011;35029;50.804;12.866;2023-06-10T08:00:25;6.32;;;5.72;;
49193;SDS011;35029;50.804;12.866;2023-06-10T08:02:51;6.53;;;5.93;;
49193;SDS011;35029;50.804;12.866;2023-06-10T08:05:17;7.25;;;5.93;;
49193;SDS011;35029;50.804;12.866;2023-06-10T08:07:42;8.05;;;7.00;;
49193;SDS011;35029;50.804;12.866;2023-06-10T08:10:09;8.18;;;6.32;;
49193;SDS011;35029;50.804;12.866;2023-06-10T08:12:35;8.93;;;6.82;;
49193;SDS011;35029;50.804;12.866;2023-06-10T08:15:01;10.50;;;6.90;;
49193;SDS011;35029;50.804;12.866;2023-06-10T08:17:29;11.50;;;6.38;;
49193;SDS011;35029;50.804;12.866;2023-06-10T08:19:55;7.15;;;6.45;;
49193;SDS011;35029;50.804;12.866;2023-06-10T08:22:21;11.90;;;6.85;;
49193;SDS011;35029;50.804;12.866;2023-06-10T08:24:46;11.82;;;7.47;;
49193;SDS011;35029;50.804;12.866;2023-06-10T08:27:12;13.13;;;7.03;;
49193;SDS011;35029;50.804;12.866;2023-06-10T08:29:39;8.18;;;7.35;;
49193;SDS011;35029;50.804;12.866;2023-06-10T08:32:05;8.95;;;6.80;;
49193;SDS011;35029;50.804;12.866;2023-06-10T08:34:33;11.55;;;6.95;;
49193;SDS011;35029;50.804;12.866;2023-06-10T08:37:00;9.05;;;6.93;;
49193;SDS011;35029;50.804;12.866;2023-06-10T08:39:26;7.80;;;7.00;;
49193;SDS011;35029;50.804;12.866;2023-06-10T08:44:54;7.32;;;6.63;;
49193;SDS011;35029;50.804;12.866;2023-06-10T08:47:22;8.32;;;7.47;;
49193;SDS011;35029;50.804;12.866;2023-06-10T08:49:49;8.63;;;7.45;;
49193;SDS011;35029;50.804;12.866;2023-06-10T08:52:16;8.68;;;7.45;;
49193;SDS011;35029;50.804;12.866;2023-06-10T08:54:46;7.60;;;6.85;;
49193;SDS011;35029;50.804;12.866;2023-06-10T08:57:17;7.80;;;7.00;;
49193;SDS011;35029;50.804;12.866;2023-06-10T08:59:45;8.18;;;6.90;;
49193;SDS011;35029;50.804;12.866;2023-06-10T09:02:11;10.23;;;7.10;;
49193;SDS011;35029;50.804;12.866;2023-06-10T09:04:38;8.77;;;6.95;;
49193;SDS011;35029;50.804;12.866;2023-06-10T09:07:04;8.27;;;6.60;;
49193;SDS011;35029;50.804;12.866;2023-06-10T09:09:31;10.75;;;7.60;;
49193;SDS011;35029;50.804;12.866;2023-06-10T09:12:00;12.75;;;7.75;;
49193;SDS011;35029;50.804;12.866;2023-06-10T09:14:25;7.90;;;7.10;;
49193;SDS011;35029;50.804;12.866;2023-06-10T09:16:51;10.20;;;6.95;;
49193;SDS011;35029;50.804;12.866;2023-06-10T09:19:16;10.73;;;7.03;;
49193;SDS011;35029;50.804;12.866;2023-06-10T09:21:42;8.57;;;7.55;;
49193;SDS011;35029;50.804;12.866;2023-06-10T09:24:08;8.65;;;7.30;;
49193;SDS011;35029;50.804;12.866;2023-06-10T09:26:34;8.02;;;7.25;;
49193;SDS011;35029;50.804;12.866;2023-06-10T09:29:06;8.48;;;6.80;;
49193;SDS011;35029;50.804;12.866;2023-06-10T09:31:39;15.38;;;6.90;;
49193;SDS011;35029;50.804;12.866;2023-06-10T09:34:12;7.15;;;6.45;;
49193;SDS011;35029;50.804;12.866;2023-06-10T09:36:39;7.65;;;6.90;;
49193;SDS011;35029;50.804;12.866;2023-06-10T09:39:06;10.10;;;6.25;;
49193;SDS011;35029;50.804;12.866;2023-06-10T09:41:41;7.43;;;5.57;;
49193;SDS011;35029;50.804;12.866;2023-06-10T09:44:13;9.02;;;5.38;;
49193;SDS011;35029;50.804;12.866;2023-06-10T09:46:41;10.20;;;5.40;;
49193;SDS011;35029;50.804;12.866;2023-06-10T09:49:07;9.48;;;5.30;;
49193;SDS011;35029;50.804;12.866;2023-06-10T09:51:33;6.72;;;5.07;;
49193;SDS011;35029;50.804;12.866;2023-06-10T09:53:59;7.57;;;5.03;;
49193;SDS011;35029;50.804;12.866;2023-06-10T09:56:36;7.00;;;4.30;;
49193;SDS011;35029;50.804;12.866;2023-06-10T09:59:08;6.30;;;4.63;;
49193;SDS011;35029;50.804;12.866;2023-06-10T10:01:34;5.90;;;4.95;;
49193;SDS011;35029;50.804;12.866;2023-06-10T10:03:59;6.82;;;4.18;;
49193;SDS011;35029;50.804;12.866;2023-06-10T10:06:26;6.20;;;4.57;;
49193;SDS011;35029;50.804;12.866;2023-06-10T10:08:53;5.78;;;4.88;;
49193;SDS011;35029;50.804;12.866;2023-06-10T10:11:19;4.85;;;4.18;;
49193;SDS011;35029;50.804;12.866;2023-06-10T10:13:51;5.30;;;4.53;;
49193;SDS011;35029;50.804;12.866;2023-06-10T10:16:27;7.90;;;4.45;;
49193;SDS011;35029;50.804;12.866;2023-06-10T10:19:06;6.13;;;5.00;;
49193;SDS011;35029;50.804;12.866;2023-06-10T10:21:37;5.85;;;4.93;;
49193;SDS011;35029;50.804;12.866;2023-06-10T10:30:21;5.85;;;5.28;;
49193;SDS011;35029;50.804;12.866;2023-06-10T10:33:00;8.18;;;6.10;;
49193;SDS011;35029;50.804;12.866;2023-06-10T10:35:32;7.78;;;6.05;;
49193;SDS011;35029;50.804;12.866;2023-06-10T10:37:58;6.55;;;5.95;;
49193;SDS011;35029;50.804;12.866;2023-06-10T10:40:25;7.47;;;6.30;;
49193;SDS011;35029;50.804;12.866;2023-06-10T10:42:55;7.50;;;6.80;;
49193;SDS011;35029;50.804;12.866;2023-06-10T10:45:21;8.23;;;6.47;;
49193;SDS011;35029;50.804;12.866;2023-06-10T10:47:51;8.57;;;6.25;;
49193;SDS011;35029;50.804;12.866;2023-06-10T10:50:19;7.80;;;6.22;;
49193;SDS011;35029;50.804;12.866;2023-06-10T10:55:19;8.23;;;6.05;;
49193;SDS011;35029;50.804;12.866;2023-06-10T10:57:52;8.82;;;5.72;;
49193;SDS011;35029;50.804;12.866;2023-06-10T11:00:26;9.52;;;6.47;;
49193;SDS011;35029;50.804;12.866;2023-06-10T11:05:38;7.53;;;6.15;;
49193;SDS011;35029;50.804;12.866;2023-06-10T11:08:04;6.68;;;5.95;;
49193;SDS011;35029;50.804;12.866;2023-06-10T11:10:35;6.80;;;6.15;;
49193;SDS011;35029;50.804;12.866;2023-06-10T11:13:08;7.53;;;5.90;;
49193;SDS011;35029;50.804;12.866;2023-06-10T11:15:45;8.27;;;6.13;;
49193;SDS011;35029;50.804;12.866;2023-06-10T11:18:30;7.72;;;5.88;;
49193;SDS011;35029;50.804;12.866;2023-06-10T11:21:04;8.43;;;6.05;;
49193;SDS011;35029;50.804;12.866;2023-06-10T11:23:32;6.75;;;6.05;;
49193;SDS011;35029;50.804;12.866;2023-06-10T11:28:40;9.15;;;6.22;;
49193;SDS011;35029;50.804;12.866;2023-06-10T11:31:09;7.28;;;6.20;;
49193;SDS011;35029;50.804;12.866;2023-06-10T11:33:43;6.40;;;5.60;;
49193;SDS011;35029;50.804;12.866;2023-06-10T11:36:09;6.55;;;5.32;;
49193;SDS011;35029;50.804;12.866;2023-06-10T11:38:35;6.80;;;4.70;;
49193;SDS011;35029;50.804;12.866;2023-06-10T11:41:01;7.53;;;5.22;;
49193;SDS011;35029;50.804;12.866;2023-06-10T11:43:27;10.27;;;5.07;;
49193;SDS011;35029;50.804;12.866;2023-06-10T11:45:54;6.78;;;5.22;;
49193;SDS011;35029;50.804;12.866;2023-06-10T11:48:21;7.40;;;4.88;;
49193;SDS011;35029;50.804;12.866;2023-06-10T11:50:46;5.30;;;4.80;;
49193;SDS011;35029;50.804;12.866;2023-06-10T11:53:12;7.07;;;5.07;;
49193;SDS011;35029;50.804;12.866;2023-06-10T11:55:44;5.57;;;5.03;;
49193;SDS011;35029;50.804;12.866;2023-06-10T11:58:23;7.20;;;4.72;;
49193;SDS011;35029;50.804;12.866;2023-06-10T12:00:49;5.30;;;4.65;;
49193;SDS011;35029;50.804;12.866;2023-06-10T12:03:16;7.38;;;5.00;;
49193;SDS011;35029;50.804;12.866;2023-06-10T12:05:59;5.55;;;5.00;;
49193;SDS011;35029;50.804;12.866;2023-06-10T12:08:26;7.47;;;5.18;;
49193;SDS011;35029;50.804;12.866;2023-06-10T12:10:52;6.57;;;4.47;;
49193;SDS011;35029;50.804;12.866;2023-06-10T12:13:19;7.15;;;4.97;;
49193;SDS011;35029;50.804;12.866;2023-06-10T12:15:46;5.30;;;4.80;;
49193;SDS011;35029;50.804;12.866;2023-06-10T12:18:18;7.22;;;5.05;;
49193;SDS011;35029;50.804;12.866;2023-06-10T12:20:47;4.95;;;4.38;;
49193;SDS011;35029;50.804;12.866;2023-06-10T12:23:17;5.35;;;4.70;;
49193;SDS011;35029;50.804;12.866;2023-06-10T12:25:53;6.20;;;4.25;;
49193;SDS011;35029;50.804;12.866;2023-06-10T12:28:20;7.40;;;5.05;;
49193;SDS011;35029;50.804;12.866;2023-06-10T12:30:50;6.88;;;4.38;;
49193;SDS011;35029;50.804;12.866;2023-06-10T12:33:17;4.70;;;4.22;;
49193;SDS011;35029;50.804;12.866;2023-06-10T12:35:49;4.63;;;4.07;;
49193;SDS011;35029;50.804;12.866;2023-06-10T12:38:22;6.47;;;4.22;;
49193;SDS011;35029;50.804;12.866;2023-06-10T12:40:54;7.40;;;4.63;;
49193;SDS011;35029;50.804;12.866;2023-06-10T12:43:26;5.80;;;4.70;;
49193;SDS011;35029;50.804;12.866;2023-06-10T12:45:51;4.97;;;4.47;;
49193;SDS011;35029;50.804;12.866;2023-06-10T12:53:21;19.38;;;4.85;;
49193;SDS011;35029;50.804;12.866;2023-06-10T12:55:54;9.82;;;4.70;;
49193;SDS011;35029;50.804;12.866;2023-06-10T12:58:20;5.75;;;4.32;;
49193;SDS011;35029;50.804;12.866;2023-06-10T13:00:47;4.90;;;4.50;;
49193;SDS011;35029;50.804;12.866;2023-06-10T13:03:14;4.63;;;4.22;;
49193;SDS011;35029;50.804;12.866;2023-06-10T13:05:40;4.45;;;4.07;;
49193;SDS011;35029;50.804;12.866;2023-06-10T13:08:06;5.53;;;4.65;;
49193;SDS011;35029;50.804;12.866;2023-06-10T13:10:32;4.57;;;4.18;;
49193;SDS011;35029;50.804;12.866;2023-06-10T13:12:59;6.18;;;4.80;;
49193;SDS011;35029;50.804;12.866;2023-06-10T13:15:25;6.07;;;4.35;;
49193;SDS011;35029;50.804;12.866;2023-06-10T13:17:51;6.00;;;3.92;;
49193;SDS011;35029;50.804;12.866;2023-06-10T13:20:17;6.40;;;4.60;;
49193;SDS011;35029;50.804;12.866;2023-06-10T13:22:44;5.22;;;4.68;;
49193;SDS011;35029;50.804;12.866;2023-06-10T13:25:10;6.32;;;4.95;;
49193;SDS011;35029;50.804;12.866;2023-06-10T13:27:36;7.20;;;4.55;;
49193;SDS011;35029;50.804;12.866;2023-06-10T13:30:06;5.22;;;4.38;;
49193;SDS011;35029;50.804;12.866;2023-06-10T13:32:34;6.85;;;4.57;;
49193;SDS011;35029;50.804;12.866;2023-06-10T13:34:59;6.38;;;4.20;;
49193;SDS011;35029;50.804;12.866;2023-06-10T13:37:25;4.93;;;4.13;;
49193;SDS011;35029;50.804;12.866;2023-06-10T13:39:51;4.32;;;3.92;;
49193;SDS011;35029;50.804;12.866;2023-06-10T13:42:17;8.07;;;4.70;;
49193;SDS011;35029;50.804;12.866;2023-06-10T13:44:43;7.95;;;4.90;;
49193;SDS011;35029;50.804;12.866;2023-06-10T13:47:09;5.75;;;4.80;;
49193;SDS011;35029;50.804;12.866;2023-06-10T13:49:34;8.55;;;4.82;;
49193;SDS011;35029;50.804;12.866;2023-06-10T13:52:01;5.40;;;4.90;;
49193;SDS011;35029;50.804;12.866;2023-06-10T13:54:26;4.68;;;4.00;;
49193;SDS011;35029;50.804;12.866;2023-06-10T13:56:52;7.53;;;4.28;;
49193;SDS011;35029;50.804;12.866;2023-06-10T13:59:18;4.50;;;4.10;;
49193;SDS011;35029;50.804;12.866;2023-06-10T14:01:45;7.15;;;4.38;;
49193;SDS011;35029;50.804;12.866;2023-06-10T14:04:10;6.20;;;3.80;;
49193;SDS011;35029;50.804;12.866;2023-06-10T14:06:36;5.68;;;4.60;;
49193;SDS011;35029;50.804;12.866;2023-06-10T14:09:02;11.30;;;4.30;;
49193;SDS011;35029;50.804;12.866;2023-06-10T14:11:28;7.20;;;4.30;;
49193;SDS011;35029;50.804;12.866;2023-06-10T14:13:53;4.07;;;3.78;;
49193;SDS011;35029;50.804;12.866;2023-06-10T14:16:21;4.85;;;4.07;;
49193;SDS011;35029;50.804;12.866;2023-06-10T14:18:47;7.30;;;4.50;;
49193;SDS011;35029;50.804;12.866;2023-06-10T14:21:13;6.18;;;4.20;;
49193;SDS011;35029;50.804;12.866;2023-06-10T14:23:38;4.63;;;4.22;;
49193;SDS011;35029;50.804;12.866;2023-06-10T14:26:05;6.78;;;4.25;;
49193;SDS011;35029;50.804;12.866;2023-06-10T14:28:32;8.80;;;4.35;;
49193;SDS011;35029;50.804;12.866;2023-06-10T14:30:58;4.65;;;4.05;;
49193;SDS011;35029;50.804;12.866;2023-06-10T14:33:23;6.65;;;3.88;;
49193;SDS011;35029;50.804;12.866;2023-06-10T14:35:49;9.35;;;3.92;;
49193;SDS011;35029;50.804;12.866;2023-06-10T14:38:15;5.95;;;4.25;;
49193;SDS011;35029;50.804;12.866;2023-06-10T14:40:40;5.82;;;4.53;;
49193;SDS011;35029;50.804;12.866;2023-06-10T14:43:06;5.72;;;4.55;;
49193;SDS011;35029;50.804;12.866;2023-06-10T14:45:38;7.78;;;4.47;;
49193;SDS011;35029;50.804;12.866;2023-06-10T14:48:06;5.53;;;3.97;;
49193;SDS011;35029;50.804;12.866;2023-06-10T14:50:34;7.75;;;4.40;;
49193;SDS011;35029;50.804;12.866;2023-06-10T14:53:00;7.30;;;3.92;;
49193;SDS011;35029;50.804;12.866;2023-06-10T14:55:26;5.32;;;4.57;;